Time;durP1;ratioP1;P1;durP2;ratioP2;P2;SDS_P1;SDS_P2;PMS_P1;PMS_P2;Temp;Humidity;BMP_temperature;BMP_pressure;BME280_temperature;BME280_humidity;BME280_pressure;Samples;Min_cycle;Max_cycle;Signal;HPM_P1;HPM_P2
2021/03/24 00:00:48;;;;;;;17.13;10.07;;;6.20;99.90;;;;;;5023441;28;20035;-64
2021/03/24 00:03:14;;;;;;;13.70;10.95;;;6.20;99.90;;;;;;5032499;28;20029;-63
2021/03/24 00:05:52;;;;;;;15.10;9.95;;;6.10;99.90;;;;;;5029029;28;20051;-63
2021/03/24 00:08:20;;;;;;;14.50;10.35;;;6.00;99.90;;;;;;5035626;28;20090;-63
2021/03/24 00:10:46;;;;;;;17.83;10.65;;;6.00;99.90;;;;;;5035836;28;20029;-63
2021/03/24 00:13:13;;;;;;;14.45;11.10;;;5.90;99.90;;;;;;5028273;28;20040;-64
2021/03/24 00:15:38;;;;;;;12.23;10.13;;;5.90;99.90;;;;;;5030066;28;20030;-63
2021/03/24 00:18:06;;;;;;;13.73;9.68;;;5.80;99.90;;;;;;5036341;28;20032;-63
2021/03/24 00:20:33;;;;;;;11.85;9.38;;;5.90;99.90;;;;;;5025698;28;20053;-65
2021/03/24 00:22:59;;;;;;;14.75;9.57;;;5.90;99.90;;;;;;5035214;28;20094;-64
2021/03/24 00:25:26;;;;;;;15.85;9.55;;;5.90;99.90;;;;;;5030084;28;20104;-62
2021/03/24 00:27:53;;;;;;;10.98;9.70;;;5.70;99.90;;;;;;5032921;28;20470;-63
2021/03/24 00:30:27;;;;;;;10.80;9.70;;;5.50;99.90;;;;;;5017461;28;20022;-63
2021/03/24 00:32:53;;;;;;;18.05;11.38;;;5.50;99.90;;;;;;5030015;28;20033;-63
2021/03/24 00:35:19;;;;;;;13.90;10.15;;;5.20;99.90;;;;;;5035188;28;20018;-63
2021/03/24 00:37:46;;;;;;;16.40;10.20;;;5.20;99.90;;;;;;5034456;28;20394;-63
2021/03/24 00:40:18;;;;;;;13.50;9.80;;;5.20;99.90;;;;;;5030834;28;20104;-63
2021/03/24 00:42:44;;;;;;;13.18;9.98;;;5.20;99.90;;;;;;5034632;28;20112;-63
2021/03/24 00:45:11;;;;;;;13.40;9.77;;;5.40;99.90;;;;;;5030965;28;20100;-63
2021/03/24 00:47:37;;;;;;;15.20;9.65;;;5.30;99.90;;;;;;5033126;28;20045;-64
2021/03/24 00:50:04;;;;;;;14.32;9.70;;;5.40;99.90;;;;;;5032308;28;20367;-63
2021/03/24 00:52:30;;;;;;;19.70;9.30;;;5.30;99.90;;;;;;5031438;28;20032;-63
2021/03/24 00:54:56;;;;;;;15.85;10.00;;;5.20;99.90;;;;;;5032829;28;20021;-62
2021/03/24 00:57:22;;;;;;;14.38;9.15;;;5.30;99.90;;;;;;5031310;28;20017;-62
2021/03/24 00:59:47;;;;;;;14.27;9.40;;;5.40;99.90;;;;;;5033970;28;20025;-64
2021/03/24 01:02:13;;;;;;;12.52;9.43;;;5.60;99.90;;;;;;5030990;28;20105;-63
2021/03/24 01:04:39;;;;;;;16.52;9.93;;;5.50;99.90;;;;;;5031163;28;20018;-63
2021/03/24 01:07:10;;;;;;;12.95;10.18;;;5.60;99.90;;;;;;5029292;28;20053;-65
2021/03/24 01:09:36;;;;;;;16.25;10.35;;;5.50;99.90;;;;;;5033105;28;20603;-62
2021/03/24 01:12:02;;;;;;;15.73;9.77;;;5.40;99.90;;;;;;5030215;28;20040;-63
2021/03/24 01:14:28;;;;;;;19.08;9.93;;;5.40;99.90;;;;;;5027517;28;20076;-63
2021/03/24 01:16:53;;;;;;;20.50;10.45;;;5.30;99.90;;;;;;5029248;28;20049;-64
2021/03/24 01:19:19;;;;;;;14.30;8.25;;;5.40;99.90;;;;;;5038159;28;20525;-62
2021/03/24 01:21:45;;;;;;;13.40;9.02;;;5.10;99.90;;;;;;5022070;28;20030;-63
2021/03/24 01:24:11;;;;;;;9.98;8.20;;;5.20;99.90;;;;;;5038580;28;20392;-63
2021/03/24 01:26:36;;;;;;;14.93;8.45;;;5.30;99.90;;;;;;5029332;28;20148;-63
2021/03/24 01:29:02;;;;;;;12.35;8.35;;;5.20;99.90;;;;;;5031213;28;20029;-62
2021/03/24 01:31:29;;;;;;;11.68;8.57;;;5.20;99.90;;;;;;5029040;28;20067;-63
2021/03/24 01:33:57;;;;;;;13.90;8.52;;;5.20;99.90;;;;;;5031446;28;20456;-63
2021/03/24 01:36:23;;;;;;;16.27;8.65;;;5.10;99.90;;;;;;5025871;28;20060;-62
2021/03/24 01:38:51;;;;;;;10.15;8.55;;;5.00;99.90;;;;;;5038090;28;20032;-63
2021/03/24 01:41:18;;;;;;;10.77;8.60;;;4.90;99.90;;;;;;5029697;28;20033;-63
2021/03/24 01:43:44;;;;;;;13.15;8.60;;;5.00;99.90;;;;;;5032974;28;20045;-62
2021/03/24 01:46:18;;;;;;;13.02;8.43;;;5.00;99.90;;;;;;5032386;28;20037;-63
2021/03/24 01:48:48;;;;;;;15.57;9.07;;;5.00;99.90;;;;;;5034222;28;20033;-64
2021/03/24 01:51:15;;;;;;;10.05;7.63;;;4.70;99.90;;;;;;5022846;28;20117;-63
2021/03/24 01:53:41;;;;;;;9.80;8.25;;;4.50;99.90;;;;;;5029607;28;20581;-62
2021/03/24 01:56:09;;;;;;;9.20;8.05;;;4.50;99.90;;;;;;5014859;28;20021;-63
2021/03/24 01:58:36;;;;;;;11.82;8.38;;;4.50;99.90;;;;;;5027978;28;20029;-62
2021/03/24 02:01:07;;;;;;;11.07;8.25;;;4.40;99.90;;;;;;5025903;28;20128;-64
2021/03/24 02:03:34;;;;;;;14.45;9.20;;;4.40;99.90;;;;;;5034065;28;20033;-63
2021/03/24 02:06:08;;;;;;;11.90;9.32;;;4.40;99.90;;;;;;5027917;28;20073;-62
2021/03/24 02:08:38;;;;;;;11.75;9.13;;;4.40;99.90;;;;;;5033769;28;20048;-63
2021/03/24 02:11:46;;;;;;;14.23;8.57;;;4.30;99.90;;;;;;5029024;28;20061;-64
2021/03/24 02:14:17;;;;;;;16.00;9.38;;;4.30;99.90;;;;;;5036528;28;20506;-63
2021/03/24 02:16:49;;;;;;;13.82;8.57;;;4.30;99.90;;;;;;5028832;28;20036;-63
2021/03/24 02:19:56;;;;;;;14.65;8.05;;;4.40;99.90;;;;;;5032829;28;20435;-63
2021/03/24 02:22:27;;;;;;;15.27;8.38;;;4.40;99.90;;;;;;5028569;28;20776;-62
2021/03/24 02:25:06;;;;;;;10.55;6.95;;;4.50;99.90;;;;;;5031964;28;20465;-63
2021/03/24 02:27:46;;;;;;;8.20;7.35;;;4.30;99.90;;;;;;5029263;28;20538;-62
2021/03/24 02:30:16;;;;;;;11.93;7.60;;;4.40;99.90;;;;;;5037423;28;20478;-63
2021/03/24 02:32:48;;;;;;;9.00;7.55;;;4.30;99.90;;;;;;5029535;28;20033;-62
2021/03/24 02:35:19;;;;;;;7.85;6.55;;;4.20;99.90;;;;;;5029520;28;20494;-63
2021/03/24 02:37:46;;;;;;;11.02;7.80;;;4.10;99.90;;;;;;5029860;28;20036;-62
2021/03/24 02:40:16;;;;;;;11.32;8.63;;;4.10;99.90;;;;;;5030216;28;20632;-63
2021/03/24 02:42:44;;;;;;;10.70;7.65;;;3.90;99.90;;;;;;5031074;28;20041;-62
2021/03/24 02:45:15;;;;;;;12.55;8.52;;;4.00;99.90;;;;;;5031053;28;20760;-62
2021/03/24 02:47:43;;;;;;;13.30;9.07;;;3.90;99.90;;;;;;5032681;28;20127;-63
2021/03/24 02:50:11;;;;;;;9.38;7.45;;;3.80;99.90;;;;;;5034146;28;20044;-62
2021/03/24 02:52:37;;;;;;;9.45;7.57;;;4.00;99.90;;;;;;5033769;28;20037;-63
2021/03/24 02:55:06;;;;;;;8.18;6.65;;;3.90;99.90;;;;;;5034285;28;20028;-63
2021/03/24 02:57:31;;;;;;;10.43;6.55;;;3.80;99.90;;;;;;5033426;28;20375;-64
2021/03/24 02:59:57;;;;;;;7.70;6.90;;;3.70;99.90;;;;;;5028070;28;20060;-62
2021/03/24 03:02:27;;;;;;;9.70;6.82;;;3.70;99.90;;;;;;5032891;28;20025;-62
2021/03/24 03:05:09;;;;;;;8.98;6.50;;;3.80;99.90;;;;;;5035612;28;20021;-62
2021/03/24 03:07:43;;;;;;;9.75;6.85;;;3.70;99.90;;;;;;5031497;28;20683;-62
2021/03/24 03:10:22;;;;;;;17.73;8.73;;;3.60;99.90;;;;;;5033535;28;20057;-62
2021/03/24 03:13:05;;;;;;;9.55;8.20;;;3.60;99.90;;;;;;5032857;28;20078;-64
2021/03/24 03:15:39;;;;;;;12.55;9.13;;;3.90;99.90;;;;;;5025356;28;20021;-63
2021/03/24 03:18:24;;;;;;;10.30;7.93;;;3.80;99.90;;;;;;5034287;28;20036;-62
2021/03/24 03:20:56;;;;;;;13.60;9.73;;;3.60;99.90;;;;;;5033281;28;20353;-64
2021/03/24 03:23:25;;;;;;;15.25;8.82;;;3.60;99.90;;;;;;5033315;28;20382;-62
2021/03/24 03:26:24;;;;;;;11.95;8.57;;;3.70;99.90;;;;;;5029348;28;20037;-62
2021/03/24 03:28:54;;;;;;;14.25;9.93;;;3.60;99.90;;;;;;5018160;28;20042;-62
2021/03/24 03:31:27;;;;;;;12.82;9.75;;;3.70;99.90;;;;;;5043910;28;20021;-62
2021/03/24 03:33:54;;;;;;;14.68;9.82;;;3.80;99.90;;;;;;5040273;28;20021;-64
2021/03/24 03:36:22;;;;;;;12.63;9.43;;;3.50;99.90;;;;;;5030858;28;20053;-63
2021/03/24 03:38:49;;;;;;;15.95;9.48;;;3.40;99.90;;;;;;5032259;28;20026;-63
2021/03/24 03:41:17;;;;;;;16.20;9.63;;;3.80;99.90;;;;;;5031837;28;20025;-63
2021/03/24 03:43:46;;;;;;;17.73;9.85;;;3.70;99.90;;;;;;5032705;28;20506;-62
2021/03/24 03:46:15;;;;;;;16.02;9.23;;;3.60;99.90;;;;;;5032749;28;20060;-62
2021/03/24 03:48:42;;;;;;;13.73;9.57;;;3.70;99.90;;;;;;5033667;28;20486;-62
2021/03/24 03:51:16;;;;;;;12.63;9.38;;;3.70;99.90;;;;;;5032840;28;20044;-62
2021/03/24 03:54:12;;;;;;;15.48;9.13;;;3.60;99.90;;;;;;5019845;28;20037;-63
2021/03/24 03:57:07;;;;;;;11.25;9.10;;;3.70;99.90;;;;;;5014754;28;20109;-62
2021/03/24 03:59:38;;;;;;;16.90;10.75;;;3.90;99.90;;;;;;5033056;28;20025;-63
2021/03/24 04:02:08;;;;;;;17.48;10.73;;;3.50;99.90;;;;;;5020338;28;20483;-63
2021/03/24 04:04:45;;;;;;;16.77;10.00;;;3.70;99.90;;;;;;5038446;28;20175;-62
2021/03/24 04:07:31;;;;;;;17.58;10.32;;;3.70;99.90;;;;;;5031182;28;20045;-62
2021/03/24 04:09:56;;;;;;;17.70;9.45;;;3.50;99.90;;;;;;5029256;28;20041;-63
2021/03/24 04:12:26;;;;;;;17.33;10.30;;;3.60;99.90;;;;;;5025176;28;20029;-63
2021/03/24 04:14:53;;;;;;;14.43;9.93;;;3.70;99.90;;;;;;5031785;28;20063;-63
2021/03/24 04:17:25;;;;;;;17.25;10.07;;;3.50;99.90;;;;;;5031900;28;20037;-63
2021/03/24 04:19:53;;;;;;;18.98;10.30;;;3.60;99.90;;;;;;5031511;28;20028;-63
2021/03/24 04:22:24;;;;;;;20.50;9.95;;;3.70;99.90;;;;;;5030986;28;20402;-63
2021/03/24 04:24:54;;;;;;;17.27;9.32;;;3.60;99.90;;;;;;5026068;28;20021;-63
2021/03/24 04:27:25;;;;;;;9.65;8.48;;;3.50;99.90;;;;;;5031619;28;20029;-62
2021/03/24 04:30:01;;;;;;;13.57;9.20;;;3.70;99.90;;;;;;5026348;28;20032;-63
2021/03/24 04:32:26;;;;;;;17.67;9.95;;;3.60;99.90;;;;;;5031559;28;20402;-64
2021/03/24 04:34:52;;;;;;;22.63;9.80;;;3.50;99.90;;;;;;5036406;28;20025;-63
2021/03/24 04:37:44;;;;;;;12.98;10.00;;;3.40;99.90;;;;;;5030726;28;20017;-63
2021/03/24 04:40:32;;;;;;;12.40;9.77;;;3.30;99.90;;;;;;5035350;28;20063;-62
2021/03/24 04:43:06;;;;;;;11.70;8.50;;;3.40;99.90;;;;;;5030762;28;20074;-62
2021/03/24 04:45:35;;;;;;;16.13;9.10;;;3.50;99.90;;;;;;5035766;28;20026;-63
2021/03/24 04:48:05;;;;;;;11.88;8.25;;;3.40;99.90;;;;;;5035390;28;20040;-62
2021/03/24 04:50:45;;;;;;;14.15;8.63;;;3.30;99.90;;;;;;5035728;28;20024;-63
2021/03/24 04:53:15;;;;;;;11.15;8.43;;;3.40;99.90;;;;;;5031858;28;20057;-64
2021/03/24 04:55:42;;;;;;;13.55;9.55;;;3.30;99.90;;;;;;5020965;28;20026;-63
2021/03/24 04:58:13;;;;;;;12.05;8.73;;;3.40;99.90;;;;;;5021255;28;20021;-63
2021/03/24 05:00:50;;;;;;;12.32;8.63;;;3.30;99.90;;;;;;5026202;28;20025;-63
2021/03/24 05:03:21;;;;;;;9.55;8.45;;;3.40;99.90;;;;;;5028036;28;20049;-63
2021/03/24 05:05:57;;;;;;;13.77;9.02;;;3.40;99.90;;;;;;5016518;28;20045;-63
2021/03/24 05:08:30;;;;;;;14.05;9.00;;;3.30;99.90;;;;;;5027937;28;20112;-63
2021/03/24 05:11:02;;;;;;;12.48;9.25;;;3.30;99.90;;;;;;5017234;28;20427;-63
2021/03/24 05:13:38;;;;;;;10.27;8.57;;;3.30;99.90;;;;;;5031471;28;20473;-63
2021/03/24 05:16:13;;;;;;;14.48;9.40;;;3.20;99.90;;;;;;5029448;28;20405;-62
2021/03/24 05:18:40;;;;;;;14.38;8.63;;;3.20;99.90;;;;;;5034909;28;20025;-63
2021/03/24 05:21:40;;;;;;;13.00;9.27;;;3.30;99.90;;;;;;5028978;28;20087;-63
2021/03/24 05:24:06;;;;;;;13.85;9.23;;;3.10;99.90;;;;;;5027193;28;20034;-63
2021/03/24 05:26:42;;;;;;;11.60;8.82;;;3.00;99.90;;;;;;5019904;28;20512;-65
2021/03/24 05:29:14;;;;;;;13.50;9.30;;;4.10;99.90;;;;;;5025343;28;20586;-65
2021/03/24 05:31:45;;;;;;;11.65;8.23;;;3.60;99.90;;;;;;5026400;28;20037;-65
2021/03/24 05:34:22;;;;;;;10.50;8.30;;;3.50;99.90;;;;;;5019749;28;20030;-65
2021/03/24 05:36:49;;;;;;;12.30;8.38;;;3.30;99.90;;;;;;5019840;28;20022;-65
2021/03/24 05:39:33;;;;;;;11.18;8.93;;;3.20;99.90;;;;;;5028286;28;20579;-65
2021/03/24 05:42:21;;;;;;;8.75;7.93;;;3.20;99.90;;;;;;5018561;28;20033;-66
2021/03/24 05:45:24;;;;;;;10.77;8.38;;;3.00;99.90;;;;;;5024823;28;20474;-65
2021/03/24 05:47:50;;;;;;;14.57;8.75;;;2.70;99.90;;;;;;5020733;28;20513;-65
2021/03/24 05:50:34;;;;;;;13.15;8.18;;;2.90;99.90;;;;;;5036620;28;20029;-65
2021/03/24 05:53:19;;;;;;;12.20;8.65;;;2.80;99.90;;;;;;5027627;28;20596;-66
2021/03/24 05:56:03;;;;;;;10.63;8.05;;;2.90;99.90;;;;;;5031063;28;22721;-64
2021/03/24 05:58:37;;;;;;;10.73;8.00;;;2.80;99.90;;;;;;5030157;28;20595;-64
2021/03/24 06:01:12;;;;;;;10.55;7.95;;;2.90;99.90;;;;;;5018061;28;20030;-65
2021/03/24 06:03:51;;;;;;;12.65;7.50;;;2.90;99.90;;;;;;5033733;28;20031;-65
2021/03/24 06:06:44;;;;;;;10.82;8.25;;;3.00;99.90;;;;;;5028114;28;20060;-65
2021/03/24 06:09:28;;;;;;;13.48;8.18;;;2.90;99.90;;;;;;5037983;28;20033;-66
2021/03/24 06:12:03;;;;;;;9.50;7.82;;;2.80;99.90;;;;;;5025872;28;20029;-66
2021/03/24 06:15:03;;;;;;;13.88;8.55;;;2.70;99.90;;;;;;5027672;28;20026;-66
2021/03/24 06:17:41;;;;;;;15.88;7.60;;;2.70;99.90;;;;;;5018907;28;20045;-65
2021/03/24 06:20:42;;;;;;;12.43;8.15;;;2.70;99.90;;;;;;5034751;28;20029;-65
2021/03/24 06:23:48;;;;;;;16.00;8.40;;;2.70;99.90;;;;;;5021271;28;20060;-66
2021/03/24 06:26:38;;;;;;;15.23;7.40;;;2.90;99.90;;;;;;5031617;28;20192;-65
2021/03/24 06:29:09;;;;;;;13.82;7.63;;;2.80;99.90;;;;;;5032297;28;20033;-65
2021/03/24 06:32:12;;;;;;;11.85;8.27;;;2.60;99.90;;;;;;5030256;28;20079;-65
2021/03/24 06:35:03;;;;;;;12.85;7.72;;;2.80;99.90;;;;;;5028180;28;20068;-65
2021/03/24 06:37:37;;;;;;;10.48;7.20;;;2.90;99.90;;;;;;5032770;28;20409;-62
2021/03/24 06:40:09;;;;;;;9.20;7.40;;;3.00;99.90;;;;;;5036422;28;20501;-62
2021/03/24 06:42:46;;;;;;;18.58;9.55;;;3.20;99.90;;;;;;5020093;28;20044;-62
2021/03/24 06:45:38;;;;;;;17.90;8.98;;;3.20;99.90;;;;;;5032458;28;20447;-61
2021/03/24 06:48:06;;;;;;;17.55;9.35;;;3.20;99.90;;;;;;5030293;28;20073;-62
2021/03/24 06:51:07;;;;;;;18.80;9.55;;;3.40;99.90;;;;;;5031378;28;20022;-62
2021/03/24 06:53:50;;;;;;;21.58;8.70;;;3.30;99.90;;;;;;5028382;28;20061;-62
2021/03/24 06:56:44;;;;;;;13.90;9.20;;;3.60;99.90;;;;;;5032406;28;20030;-61
2021/03/24 06:59:36;;;;;;;16.92;9.45;;;3.60;99.90;;;;;;5028847;28;20094;-62
2021/03/24 07:02:15;;;;;;;10.43;8.30;;;3.60;99.90;;;;;;5031326;28;20018;-62
2021/03/24 07:04:53;;;;;;;15.57;8.60;;;4.20;99.90;;;;;;5028254;28;20025;-62
2021/03/24 07:07:37;;;;;;;8.90;7.57;;;3.80;99.90;;;;;;5025306;28;20060;-62
2021/03/24 07:10:41;;;;;;;15.23;8.10;;;3.80;99.90;;;;;;5030648;28;20025;-60
2021/03/24 07:13:22;;;;;;;13.80;8.45;;;3.70;99.90;;;;;;5012401;28;20108;-61
2021/03/24 07:16:13;;;;;;;11.35;8.13;;;3.60;99.90;;;;;;5013875;28;20442;-61
2021/03/24 07:19:16;;;;;;;13.43;9.25;;;3.80;99.90;;;;;;5029640;28;20045;-61
2021/03/24 07:22:12;;;;;;;24.10;11.02;;;4.00;99.90;;;;;;5028512;28;20029;-60
2021/03/24 07:25:03;;;;;;;18.08;10.73;;;4.20;99.90;;;;;;5034467;28;20033;-60
2021/03/24 07:28:12;;;;;;;16.83;11.05;;;4.20;99.90;;;;;;5021736;28;20113;-60
2021/03/24 07:30:37;;;;;;;16.15;9.20;;;4.50;99.90;;;;;;5016123;28;20523;-60
2021/03/24 07:33:18;;;;;;;17.80;9.52;;;4.50;99.90;;;;;;5029457;28;20029;-59
2021/03/24 07:35:46;;;;;;;21.85;9.80;;;4.60;99.90;;;;;;5031332;28;20029;-61
2021/03/24 07:38:31;;;;;;;17.30;9.70;;;4.80;99.90;;;;;;5036998;28;20040;-60
2021/03/24 07:41:15;;;;;;;19.65;8.80;;;4.90;99.90;;;;;;5035643;28;20026;-60
2021/03/24 07:43:53;;;;;;;16.63;9.13;;;5.10;99.90;;;;;;5036825;28;20091;-61
2021/03/24 07:46:27;;;;;;;13.18;9.20;;;5.20;99.90;;;;;;5028728;28;20027;-60
2021/03/24 07:49:08;;;;;;;12.50;8.68;;;5.20;99.90;;;;;;5030462;28;20065;-60
2021/03/24 07:51:54;;;;;;;18.98;10.32;;;5.40;99.90;;;;;;5021647;28;20022;-61
2021/03/24 07:54:38;;;;;;;;;;;5.50;99.90;;;;;;5036757;28;20029;-60
2021/03/24 07:57:36;;;;;;;20.65;9.68;;;5.60;99.90;;;;;;5031414;28;20007;-60
2021/03/24 08:00:33;;;;;;;13.10;9.55;;;5.80;99.90;;;;;;5032912;28;20036;-60
2021/03/24 08:03:17;;;;;;;14.15;8.70;;;6.00;99.90;;;;;;5031992;28;20506;-60
2021/03/24 08:05:58;;;;;;;18.98;10.02;;;6.10;99.90;;;;;;5023874;28;20049;-60
2021/03/24 08:08:48;;;;;;;16.45;9.07;;;6.30;99.90;;;;;;5036498;28;20091;-60
2021/03/24 08:11:41;;;;;;;12.57;9.23;;;6.50;99.90;;;;;;5041377;28;20018;-60
2021/03/24 08:14:19;;;;;;;13.20;9.43;;;6.50;99.90;;;;;;5038912;28;20156;-61
2021/03/24 08:16:59;;;;;;;17.00;8.82;;;6.60;99.90;;;;;;5029464;28;20539;-59
2021/03/24 08:19:48;;;;;;;19.40;9.45;;;6.80;99.90;;;;;;5037704;28;20026;-60
2021/03/24 08:22:26;;;;;;;17.30;8.95;;;6.80;99.90;;;;;;5020586;28;20068;-59
2021/03/24 08:24:57;;;;;;;12.38;8.75;;;7.20;99.90;;;;;;5030349;28;20037;-60
2021/03/24 08:27:38;;;;;;;21.70;9.52;;;7.10;99.90;;;;;;5030737;28;20029;-61
2021/03/24 08:30:13;;;;;;;15.35;9.02;;;7.40;99.90;;;;;;5034172;28;20018;-59
2021/03/24 08:33:16;;;;;;;15.95;9.10;;;7.40;99.90;;;;;;5028933;28;20061;-59
2021/03/24 08:36:17;;;;;;;12.57;8.75;;;7.30;99.90;;;;;;5024531;28;20398;-60
2021/03/24 08:39:20;;;;;;;16.17;8.65;;;7.80;99.90;;;;;;5034327;28;20163;-60
2021/03/24 08:42:03;;;;;;;14.43;8.40;;;7.90;99.90;;;;;;5019296;28;20061;-60
2021/03/24 08:45:00;;;;;;;17.27;8.52;;;8.10;99.90;;;;;;5040117;28;20029;-60
2021/03/24 08:47:41;;;;;;;13.07;9.45;;;8.10;99.90;;;;;;5031267;28;20044;-59
2021/03/24 08:50:14;;;;;;;13.73;8.77;;;8.60;99.90;;;;;;5032573;28;20018;-60
2021/03/24 08:53:02;;;;;;;17.58;8.43;;;9.00;99.90;;;;;;5025737;28;20087;-60
2021/03/24 08:56:19;;;;;;;18.00;9.32;;;8.60;99.90;;;;;;5019090;28;20025;-59
2021/03/24 08:59:11;;;;;;;13.90;8.60;;;9.00;99.90;;;;;;5033889;28;20072;-60
2021/03/24 09:01:57;;;;;;;16.95;8.48;;;9.20;99.90;;;;;;5015498;28;20124;-60
2021/03/24 09:05:08;;;;;;;15.63;8.35;;;9.10;99.90;;;;;;5035543;28;20060;-60
2021/03/24 09:08:11;;;;;;;16.35;9.35;;;9.30;99.90;;;;;;5022038;28;20426;-61
2021/03/24 09:11:08;;;;;;;18.73;8.43;;;9.60;99.90;;;;;;5024006;28;20033;-60
2021/03/24 09:13:39;;;;;;;;;;;10.10;99.90;;;;;;5030278;28;20080;-60
2021/03/24 09:16:33;;;;;;;14.35;7.63;;;10.30;99.90;;;;;;5029994;28;20341;-60
2021/03/24 09:19:21;;;;;;;16.58;8.65;;;10.30;99.90;;;;;;5035081;28;20040;-60
2021/03/24 09:22:13;;;;;;;12.38;7.28;;;10.30;99.90;;;;;;5021552;28;20497;-61
2021/03/24 09:25:02;;;;;;;10.90;7.63;;;10.40;99.90;;;;;;5031559;28;20041;-62
2021/03/24 09:27:51;;;;;;;12.18;7.38;;;10.80;99.90;;;;;;5028215;28;20088;-61
2021/03/24 09:30:34;;;;;;;13.52;7.97;;;11.10;99.90;;;;;;5031098;28;20053;-62
2021/03/24 09:33:25;;;;;;;15.88;8.35;;;11.20;99.90;;;;;;5033821;28;20040;-61
2021/03/24 09:36:11;;;;;;;14.38;7.93;;;11.30;99.90;;;;;;5025029;28;20024;-61
2021/03/24 09:38:40;;;;;;;15.95;8.60;;;11.40;99.90;;;;;;5035051;28;20515;-61
2021/03/24 09:41:17;;;;;;;16.23;9.00;;;11.50;99.90;;;;;;5031606;28;20515;-62
2021/03/24 09:43:47;;;;;;;19.98;9.27;;;11.80;99.90;;;;;;5035975;28;20581;-61
2021/03/24 09:46:35;;;;;;;25.20;9.88;;;12.10;99.90;;;;;;5031142;28;20039;-61
2021/03/24 09:49:13;;;;;;;13.80;8.65;;;12.30;99.90;;;;;;5029328;28;20029;-62
2021/03/24 09:51:53;;;;;;;12.82;6.95;;;12.40;99.90;;;;;;5025319;28;20383;-61
2021/03/24 09:54:27;;;;;;;17.52;7.70;;;12.50;99.90;;;;;;5023886;28;20061;-62
2021/03/24 09:57:10;;;;;;;13.50;7.28;;;12.30;99.90;;;;;;5019472;28;20076;-63
2021/03/24 09:59:58;;;;;;;21.17;7.32;;;12.80;99.90;;;;;;5032729;28;20103;-62
2021/03/24 10:02:36;;;;;;;15.30;7.10;;;12.90;99.90;;;;;;5030100;28;20560;-61
2021/03/24 10:05:06;;;;;;;18.17;7.72;;;13.30;99.90;;;;;;5030375;28;20568;-62
2021/03/24 10:07:37;;;;;;;18.05;7.63;;;13.50;99.90;;;;;;5029274;28;20516;-62
2021/03/24 10:10:24;;;;;;;15.50;7.55;;;13.60;99.90;;;;;;5030641;28;20029;-62
2021/03/24 10:12:57;;;;;;;19.63;7.47;;;13.50;99.90;;;;;;5029214;28;20030;-62
2021/03/24 10:15:38;;;;;;;17.40;6.53;;;13.80;99.90;;;;;;5031886;28;20025;-62
2021/03/24 10:18:28;;;;;;;11.48;5.97;;;14.10;99.90;;;;;;5026842;28;20162;-62
2021/03/24 10:20:56;;;;;;;12.05;5.80;;;14.10;99.90;;;;;;5017858;28;20022;-62
2021/03/24 10:23:27;;;;;;;15.77;6.00;;;14.40;99.90;;;;;;5027911;28;20681;-62
2021/03/24 10:26:07;;;;;;;15.63;6.05;;;14.40;99.90;;;;;;5021158;28;20022;-62
2021/03/24 10:28:59;;;;;;;12.10;5.60;;;14.80;99.90;;;;;;5028901;28;20029;-61
2021/03/24 10:31:39;;;;;;;14.70;6.22;;;14.70;99.90;;;;;;5030582;28;20028;-61
2021/03/24 10:34:16;;;;;;;20.48;6.00;;;15.10;99.90;;;;;;5032793;28;20552;-62
2021/03/24 10:36:45;;;;;;;12.75;5.28;;;15.60;99.90;;;;;;5016892;28;20029;-61
2021/03/24 10:39:31;;;;;;;10.82;5.40;;;15.70;99.90;;;;;;5023788;28;20029;-61
2021/03/24 10:42:17;;;;;;;10.95;5.18;;;15.30;99.90;;;;;;5028751;28;20034;-62
2021/03/24 10:44:52;;;;;;;;;;;15.40;99.90;;;;;;5031870;28;20104;-61
2021/03/24 10:47:21;;;;;;;14.05;4.22;;;15.50;99.90;;;;;;5027367;28;20063;-61
2021/03/24 10:49:59;;;;;;;14.52;4.68;;;15.90;99.90;;;;;;5032940;28;20060;-62
2021/03/24 10:52:30;;;;;;;10.38;3.97;;;16.00;99.90;;;;;;5028580;28;20053;-62
2021/03/24 10:55:03;;;;;;;10.85;4.10;;;16.30;99.90;;;;;;5032782;28;20029;-62
2021/03/24 10:57:28;;;;;;;10.00;4.40;;;16.10;99.90;;;;;;5029597;28;20025;-62
2021/03/24 11:00:22;;;;;;;4.80;3.58;;;16.40;99.90;;;;;;5032788;28;20022;-63
2021/03/24 11:03:02;;;;;;;11.05;3.80;;;16.70;99.90;;;;;;5030599;28;20048;-63
2021/03/24 11:05:37;;;;;;;10.23;3.63;;;16.80;99.90;;;;;;5030305;28;20046;-62
2021/03/24 11:08:24;;;;;;;9.18;3.50;;;16.60;99.80;;;;;;5033593;28;20648;-62
2021/03/24 11:11:16;;;;;;;9.65;3.85;;;17.00;99.80;;;;;;5027943;28;20036;-62
2021/03/24 11:13:54;;;;;;;8.80;3.38;;;17.40;99.80;;;;;;5038326;28;20033;-63
2021/03/24 11:16:27;;;;;;;16.13;3.97;;;16.90;97.60;;;;;;5032724;28;20486;-62
2021/03/24 11:19:05;;;;;;;6.95;3.90;;;17.00;98.60;;;;;;5032882;28;20145;-62
2021/03/24 11:21:41;;;;;;;8.95;4.50;;;17.70;99.60;;;;;;5029252;28;20033;-62
2021/03/24 11:24:29;;;;;;;7.72;4.18;;;17.90;99.00;;;;;;5033133;28;20069;-62
2021/03/24 11:27:03;;;;;;;10.05;4.65;;;18.30;99.20;;;;;;5020997;28;20052;-65
2021/03/24 11:29:31;;;;;;;10.68;5.32;;;18.40;99.70;;;;;;5034695;28;20021;-64
2021/03/24 11:32:00;;;;;;;11.13;4.50;;;18.60;98.90;;;;;;5029097;28;20037;-65
2021/03/24 11:34:47;;;;;;;8.95;4.75;;;18.60;98.10;;;;;;5031734;28;20545;-64
2021/03/24 11:37:19;;;;;;;9.50;5.00;;;18.50;98.00;;;;;;5023399;28;20040;-65
2021/03/24 11:39:51;;;;;;;12.30;4.68;;;18.40;97.80;;;;;;5029772;28;20498;-65
2021/03/24 11:42:21;;;;;;;10.18;4.65;;;18.60;97.30;;;;;;5029109;28;20017;-64
2021/03/24 11:44:49;;;;;;;7.18;5.07;;;18.40;97.80;;;;;;5032645;28;20096;-64
2021/03/24 11:47:24;;;;;;;10.95;4.70;;;19.00;96.10;;;;;;5021491;28;20045;-64
2021/03/24 11:50:06;;;;;;;11.15;4.93;;;18.70;96.90;;;;;;5031971;28;20124;-65
2021/03/24 11:52:43;;;;;;;8.35;4.03;;;19.20;97.00;;;;;;5029057;28;20402;-64
2021/03/24 11:55:41;;;;;;;9.40;4.45;;;19.10;95.40;;;;;;5019295;28;20022;-65
2021/03/24 11:59:08;;;;;;;9.85;3.97;;;19.90;95.50;;;;;;5020261;28;20026;-65
2021/03/24 12:01:48;;;;;;;8.77;4.05;;;20.00;95.30;;;;;;4950524;28;20150;-65
2021/03/24 12:04:40;;;;;;;9.40;4.32;;;20.00;93.20;;;;;;5016497;28;20099;-66
2021/03/24 12:07:46;;;;;;;10.85;3.90;;;20.30;93.50;;;;;;5009905;28;20045;-65
2021/03/24 12:10:11;;;;;;;6.95;3.65;;;19.90;92.70;;;;;;5019856;28;20037;-65
2021/03/24 12:12:38;;;;;;;10.57;3.42;;;20.30;94.10;;;;;;5028616;28;20664;-64
2021/03/24 12:15:31;;;;;;;8.07;3.42;;;20.20;92.30;;;;;;5025657;28;20360;-65
2021/03/24 12:18:05;;;;;;;13.60;3.40;;;20.10;92.20;;;;;;5025950;28;20115;-65
2021/03/24 12:20:31;;;;;;;7.40;3.60;;;19.90;91.30;;;;;;5021245;28;20096;-65
2021/03/24 12:22:58;;;;;;;10.32;3.38;;;19.90;91.20;;;;;;5025651;28;20415;-64
2021/03/24 12:25:30;;;;;;;8.63;3.70;;;20.20;90.40;;;;;;5029946;28;20029;-64
2021/03/24 12:28:03;;;;;;;6.65;3.38;;;20.30;90.80;;;;;;5024340;28;20034;-62
2021/03/24 12:30:43;;;;;;;6.57;3.42;;;21.00;91.00;;;;;;5030185;28;20087;-65
2021/03/24 12:33:15;;;;;;;7.65;3.38;;;21.20;90.50;;;;;;5023285;28;20030;-62
2021/03/24 12:35:43;;;;;;;9.23;3.60;;;21.00;90.10;;;;;;5018818;28;20040;-63
2021/03/24 12:38:15;;;;;;;5.47;3.08;;;20.60;87.40;;;;;;5021784;28;20529;-65
2021/03/24 12:40:53;;;;;;;4.82;3.42;;;21.10;90.00;;;;;;5026396;28;20025;-65
2021/03/24 12:43:24;;;;;;;5.15;3.10;;;21.20;89.90;;;;;;5024416;28;20033;-65
2021/03/24 12:45:50;;;;;;;8.82;3.30;;;21.40;88.00;;;;;;5025234;28;20087;-65
2021/03/24 12:48:29;;;;;;;5.05;3.13;;;21.30;87.10;;;;;;5023984;28;20143;-62
2021/03/24 12:51:14;;;;;;;8.95;3.67;;;21.50;85.90;;;;;;5029127;28;20017;-62
2021/03/24 12:53:49;;;;;;;7.80;3.17;;;22.30;85.80;;;;;;5023521;28;20034;-64
2021/03/24 12:56:34;;;;;;;4.75;3.28;;;21.90;85.90;;;;;;5029352;28;20028;-62
2021/03/24 12:59:07;;;;;;;6.03;3.22;;;21.90;84.60;;;;;;5021643;28;20363;-62
2021/03/24 13:02:15;;;;;;;6.68;2.80;;;22.00;84.10;;;;;;5025822;28;20037;-62
2021/03/24 13:05:12;;;;;;;9.65;3.03;;;22.00;83.10;;;;;;5024534;28;20032;-63
2021/03/24 13:07:57;;;;;;;10.35;3.33;;;22.00;82.90;;;;;;5026219;28;20041;-63
2021/03/24 13:10:56;;;;;;;9.77;3.28;;;21.50;84.90;;;;;;5025269;28;20021;-63
2021/03/24 13:13:38;;;;;;;7.53;3.13;;;22.40;83.80;;;;;;5023995;28;20065;-63
2021/03/24 13:16:16;;;;;;;5.05;2.95;;;22.90;82.60;;;;;;5027459;28;20042;-63
2021/03/24 13:18:59;;;;;;;5.32;3.35;;;23.60;81.50;;;;;;5023237;28;20515;-64
2021/03/24 13:21:42;;;;;;;8.07;3.17;;;23.20;82.20;;;;;;5022589;28;20025;-64
2021/03/24 13:24:13;;;;;;;6.47;3.10;;;22.50;81.90;;;;;;5027240;28;20037;-63
2021/03/24 13:26:40;;;;;;;9.73;3.03;;;23.20;81.20;;;;;;5025313;28;20037;-63
2021/03/24 13:29:34;;;;;;;5.15;2.78;;;22.50;77.90;;;;;;5023151;28;20448;-64
2021/03/24 13:32:19;;;;;;;4.28;2.70;;;22.80;78.20;;;;;;5018247;28;20029;-64
2021/03/24 13:35:15;;;;;;;7.00;2.88;;;23.10;79.30;;;;;;5024402;28;20060;-64
2021/03/24 13:37:42;;;;;;;7.00;2.45;;;23.30;78.60;;;;;;5025807;28;20064;-65
2021/03/24 13:40:29;;;;;;;5.38;3.03;;;23.60;79.80;;;;;;5026171;28;20025;-65